Time;durP1;ratioP1;P1;durP2;ratioP2;P2;SDS_P1;SDS_P2;PMS_P1;PMS_P2;Temp;Humidity;BMP_temperature;BMP_pressure;BME280_temperature;BME280_humidity;BME280_pressure;Samples;Min_cycle;Max_cycle;Signal;HPM_P1;HPM_P2
2022/04/27 00:00:36;;;;;;;1.98;1.17;;;;;;;4.51;100.00;101821.38;5090473;28;20020;-47
2022/04/27 00:03:03;;;;;;;2.08;0.57;;;;;;;4.50;100.00;101823.16;5098097;28;20023;-49
2022/04/27 00:05:29;;;;;;;2.53;1.95;;;;;;;4.48;100.00;101830.31;5093358;28;20020;-47
2022/04/27 00:07:55;;;;;;;1.95;0.98;;;;;;;4.42;100.00;101832.59;5093468;28;20563;-51
2022/04/27 00:10:21;;;;;;;2.95;0.85;;;;;;;4.29;100.00;101828.28;5107609;28;20134;-47
2022/04/27 00:12:47;;;;;;;1.58;1.20;;;;;;;4.26;100.00;101832.91;5098102;28;20476;-46
2022/04/27 00:15:14;;;;;;;0.57;0.57;;;;;;;4.15;100.00;101831.94;5091426;28;20045;-51
2022/04/27 00:17:39;;;;;;;1.20;1.02;;;;;;;4.03;100.00;101827.63;5093866;28;20318;-48
2022/04/27 00:20:07;;;;;;;2.80;1.15;;;;;;;3.97;100.00;101838.56;5095015;28;20038;-48
2022/04/27 00:22:32;;;;;;;2.42;1.42;;;;;;;3.99;100.00;101834.03;5097215;28;20028;-46
2022/04/27 00:25:02;;;;;;;2.90;0.50;;;;;;;3.96;100.00;101830.81;5091434;28;20348;-46
2022/04/27 00:27:28;;;;;;;1.10;0.60;;;;;;;3.86;100.00;101838.53;5105917;28;20502;-47
2022/04/27 00:29:54;;;;;;;1.40;0.85;;;;;;;3.79;100.00;101843.41;5093342;28;20251;-48
2022/04/27 00:32:19;;;;;;;2.80;1.40;;;;;;;3.72;100.00;101839.56;5094409;28;20043;-48
2022/04/27 00:34:45;;;;;;;2.03;1.05;;;;;;;3.66;100.00;101840.84;5101978;28;20411;-49
2022/04/27 00:37:10;;;;;;;1.63;0.90;;;;;;;3.65;100.00;101833.94;5105979;28;20509;-47
2022/04/27 00:39:36;;;;;;;1.77;1.25;;;;;;;3.57;100.00;101841.53;5104518;28;20030;-48
2022/04/27 00:42:15;;;;;;;2.15;0.88;;;;;;;3.46;100.00;101831.81;5100934;28;20032;-52
2022/04/27 00:44:46;;;;;;;1.30;1.17;;;;;;;3.37;100.00;101847.38;5102238;28;20034;-49
2022/04/27 00:47:16;;;;;;;0.90;0.80;;;;;;;3.33;100.00;101841.53;5104346;28;20032;-46
2022/04/27 00:49:46;;;;;;;1.13;1.02;;;;;;;3.32;100.00;101842.47;5111872;28;20402;-47
2022/04/27 00:52:14;;;;;;;4.85;2.17;;;;;;;3.38;100.00;101842.03;5105676;28;20032;-48
2022/04/27 00:54:45;;;;;;;3.60;1.15;;;;;;;3.31;100.00;101839.97;5099746;28;20024;-48
2022/04/27 00:57:11;;;;;;;3.45;1.10;;;;;;;3.27;100.00;101836.72;5104535;28;20027;-48
2022/04/27 00:59:37;;;;;;;2.03;1.40;;;;;;;3.21;100.00;101842.41;5094685;28;20598;-50
2022/04/27 01:02:04;;;;;;;8.75;1.42;;;;;;;3.12;100.00;101838.63;5091106;28;20032;-51
2022/04/27 01:04:32;;;;;;;1.92;1.23;;;;;;;3.16;100.00;101839.28;5101786;28;20516;-52
2022/04/27 01:06:58;;;;;;;1.13;0.75;;;;;;;3.12;100.00;101836.00;5102697;28;20043;-47
2022/04/27 01:09:25;;;;;;;3.05;0.98;;;;;;;3.03;100.00;101847.16;5091105;28;20024;-48
2022/04/27 01:11:50;;;;;;;2.15;0.82;;;;;;;2.95;100.00;101852.13;5096120;28;20111;-51
2022/04/27 01:14:16;;;;;;;2.92;1.13;;;;;;;2.88;100.00;101848.25;5093978;28;20421;-52
2022/04/27 01:16:41;;;;;;;1.42;1.10;;;;;;;2.84;100.00;101848.47;5106209;28;20124;-47
2022/04/27 01:19:07;;;;;;;1.42;0.82;;;;;;;2.79;100.00;101850.56;5109952;28;20106;-51
2022/04/27 01:21:33;;;;;;;2.30;1.17;;;;;;;2.78;100.00;101854.13;5091127;28;20491;-47
2022/04/27 01:23:58;;;;;;;1.80;1.08;;;;;;;2.75;100.00;101854.34;5106359;28;20590;-47
2022/04/27 01:26:24;;;;;;;1.73;1.33;;;;;;;2.66;100.00;101862.84;5094004;28;20032;-53
2022/04/27 01:28:50;;;;;;;2.40;1.10;;;;;;;2.52;100.00;101868.19;5108971;28;20383;-48
2022/04/27 01:31:16;;;;;;;1.23;0.80;;;;;;;2.43;100.00;101871.41;5090018;28;20306;-49
2022/04/27 01:33:41;;;;;;;0.75;0.60;;;;;;;2.33;100.00;101872.03;5098176;28;20072;-47
2022/04/27 01:36:09;;;;;;;1.63;0.90;;;;;;;2.27;100.00;101871.59;5099928;28;20024;-52
2022/04/27 01:38:39;;;;;;;1.50;1.40;;;;;;;2.21;100.00;101877.25;5100171;28;20043;-49
2022/04/27 01:41:05;;;;;;;1.23;0.90;;;;;;;2.10;100.00;101876.19;5079234;28;20024;-47
2022/04/27 01:43:30;;;;;;;1.77;0.85;;;;;;;2.04;100.00;101874.00;5103596;28;20103;-48
2022/04/27 01:45:56;;;;;;;1.25;0.80;;;;;;;1.99;100.00;101875.22;5099442;28;20103;-49
2022/04/27 01:48:22;;;;;;;3.65;1.23;;;;;;;1.93;100.00;101879.91;5099754;28;20051;-52
2022/04/27 01:50:47;;;;;;;1.80;1.70;;;;;;;1.86;100.00;101881.28;5096225;28;20103;-50
2022/04/27 01:55:57;;;;;;;2.53;0.95;;;;;;;1.77;100.00;101881.84;5095004;28;20051;-47
2022/04/27 01:58:25;;;;;;;4.68;1.17;;;;;;;1.70;100.00;101886.66;5095142;28;20268;-49
2022/04/27 02:00:51;;;;;;;1.73;1.23;;;;;;;1.63;100.00;101888.00;5101595;28;20024;-49
2022/04/27 02:03:18;;;;;;;1.00;0.65;;;;;;;1.51;100.00;101886.97;5110283;28;20164;-50
2022/04/27 02:05:44;;;;;;;0.80;0.80;;;;;;;1.43;100.00;101877.97;5092385;28;20130;-50
2022/04/27 02:08:10;;;;;;;2.67;0.73;;;;;;;1.35;100.00;101891.50;5104927;28;20692;-47
2022/04/27 02:10:36;;;;;;;4.22;2.00;;;;;;;1.33;100.00;101890.78;5105012;28;20110;-50
2022/04/27 02:13:06;;;;;;;3.40;0.80;;;;;;;1.29;100.00;101890.13;5109435;28;20081;-53
2022/04/27 02:15:32;;;;;;;2.42;1.10;;;;;;;1.22;100.00;101898.44;5093492;28;20039;-46
2022/04/27 02:17:58;;;;;;;1.33;0.70;;;;;;;1.15;100.00;101897.16;5103579;28;20032;-52
2022/04/27 02:20:24;;;;;;;3.85;1.42;;;;;;;1.09;100.00;101901.81;5096588;28;20032;-50
2022/04/27 02:22:50;;;;;;;3.22;1.40;;;;;;;1.07;100.00;101901.06;5109428;28;20027;-46
2022/04/27 02:25:17;;;;;;;1.55;0.88;;;;;;;1.03;100.00;101906.56;5101179;28;20047;-48
2022/04/27 02:27:43;;;;;;;1.95;1.10;;;;;;;1.02;100.00;101904.91;5107294;28;20039;-47
2022/04/27 02:30:09;;;;;;;1.48;0.50;;;;;;;1.07;100.00;101908.06;5112883;28;20396;-50
2022/04/27 02:32:34;;;;;;;2.47;1.13;;;;;;;1.13;100.00;101907.69;5110417;28;20038;-46
2022/04/27 02:35:00;;;;;;;1.73;0.85;;;;;;;1.14;100.00;101908.53;5102197;28;20027;-48
2022/04/27 02:37:25;;;;;;;3.05;1.17;;;;;;;1.17;100.00;101913.56;5081278;28;20055;-52
2022/04/27 02:39:50;;;;;;;2.40;1.27;;;;;;;1.20;100.00;101924.66;5092546;28;20031;-50
2022/04/27 02:42:17;;;;;;;4.32;1.02;;;;;;;1.24;100.00;101917.47;5099936;28;20028;-47
2022/04/27 02:44:43;;;;;;;6.07;1.40;;;;;;;1.33;100.00;101916.91;5103387;28;20326;-49
2022/04/27 02:47:09;;;;;;;5.03;1.17;;;;;;;1.38;100.00;101921.84;5097595;28;20497;-48
2022/04/27 02:52:18;;;;;;;1.83;0.70;;;;;;;1.41;100.00;101900.75;5100400;28;20030;-50
2022/04/27 02:54:43;;;;;;;2.55;1.33;;;;;;;1.44;100.00;101904.00;5106293;28;20031;-52
2022/04/27 02:57:09;;;;;;;2.45;0.68;;;;;;;1.52;100.00;101909.59;5097447;28;20031;-49
2022/04/27 02:59:34;;;;;;;1.33;0.75;;;;;;;1.56;100.00;101914.63;5092925;28;20098;-48
2022/04/27 03:02:00;;;;;;;2.90;0.93;;;;;;;1.58;100.00;101912.75;5097927;28;20032;-51
2022/04/27 03:04:26;;;;;;;4.25;1.17;;;;;;;1.62;100.00;101909.00;5103290;28;20425;-50
2022/04/27 03:06:51;;;;;;;3.80;0.90;;;;;;;1.65;100.00;101914.03;5096377;28;20383;-49
2022/04/27 03:09:16;;;;;;;3.03;0.85;;;;;;;1.69;100.00;101915.50;5104880;28;20039;-48
2022/04/27 03:11:42;;;;;;;1.48;1.08;;;;;;;1.75;100.00;101915.94;5100088;28;20089;-48
2022/04/27 03:14:07;;;;;;;3.28;1.33;;;;;;;1.78;100.00;101914.91;5101202;28;20023;-49
2022/04/27 03:16:33;;;;;;;1.95;1.52;;;;;;;1.81;100.00;101914.72;5096723;28;20032;-51
2022/04/27 03:18:58;;;;;;;1.38;1.08;;;;;;;1.84;100.00;101909.31;5092446;28;20460;-51
2022/04/27 03:21:23;;;;;;;1.83;0.75;;;;;;;1.91;100.00;101909.72;5100261;28;20039;-49
2022/04/27 03:23:49;;;;;;;5.50;2.47;;;;;;;1.98;100.00;101908.38;5096642;28;20040;-49
2022/04/27 03:26:14;;;;;;;1.25;1.00;;;;;;;2.10;100.00;101909.38;5092366;28;20043;-48
2022/04/27 03:28:39;;;;;;;2.60;2.10;;;;;;;2.16;100.00;101908.97;5110652;28;20040;-50
2022/04/27 03:31:05;;;;;;;1.65;1.00;;;;;;;2.22;100.00;101907.72;5096193;28;20026;-51
2022/04/27 03:33:30;;;;;;;1.45;1.35;;;;;;;2.30;100.00;101906.28;5096037;28;20032;-49
2022/04/27 03:35:55;;;;;;;3.75;0.88;;;;;;;2.40;100.00;101906.47;5090153;28;20388;-50
2022/04/27 03:38:21;;;;;;;5.38;1.33;;;;;;;2.47;100.00;101901.69;5104598;28;20020;-51
2022/04/27 03:40:47;;;;;;;1.20;0.68;;;;;;;2.56;100.00;101901.06;5101156;28;20035;-51
2022/04/27 03:43:13;;;;;;;0.63;0.52;;;;;;;2.62;100.00;101901.47;5093378;28;20063;-47
2022/04/27 03:45:38;;;;;;;1.83;1.02;;;;;;;2.68;100.00;101917.72;5107298;28;20375;-50
2022/04/27 03:48:04;;;;;;;1.90;1.27;;;;;;;2.69;100.00;101912.38;5108775;28;20031;-50
2022/04/27 03:50:30;;;;;;;3.10;1.58;;;;;;;2.72;100.00;101911.34;5077775;28;20111;-51
2022/04/27 03:52:55;;;;;;;1.50;0.65;;;;;;;2.75;100.00;101909.34;5095602;28;20326;-48
2022/04/27 03:55:20;;;;;;;1.73;1.05;;;;;;;2.79;100.00;101912.59;5100227;28;20114;-53
2022/04/27 03:57:46;;;;;;;1.02;0.90;;;;;;;2.83;100.00;101909.66;5110898;28;20039;-49
2022/04/27 04:00:12;;;;;;;1.75;1.35;;;;;;;2.90;100.00;101914.47;5092872;28;20051;-51
2022/04/27 04:02:37;;;;;;;1.98;1.30;;;;;;;2.93;100.00;101906.41;5105829;28;20027;-51
2022/04/27 04:05:07;;;;;;;3.70;1.20;;;;;;;2.99;100.00;101913.81;5099776;28;20476;-48
2022/04/27 04:07:32;;;;;;;1.58;0.82;;;;;;;3.05;100.00;101910.78;5113396;28;20536;-48
2022/04/27 04:09:58;;;;;;;2.50;1.35;;;;;;;3.09;100.00;101916.66;5094594;28;20038;-48
2022/04/27 04:12:23;;;;;;;3.72;1.05;;;;;;;3.12;100.00;101916.44;5104770;28;20027;-49
2022/04/27 04:14:49;;;;;;;2.22;1.05;;;;;;;3.15;100.00;101922.31;5106390;28;20085;-49
2022/04/27 04:17:14;;;;;;;3.30;1.13;;;;;;;3.18;100.00;101918.63;5107698;28;20032;-49
2022/04/27 04:19:39;;;;;;;3.28;0.82;;;;;;;3.21;100.00;101921.88;5092967;28;20016;-48
2022/04/27 04:22:06;;;;;;;3.88;0.88;;;;;;;3.23;100.00;101917.38;5100443;28;20034;-48
2022/04/27 04:24:32;;;;;;;1.33;1.17;;;;;;;3.26;100.00;101927.63;5107786;28;20032;-51
2022/04/27 04:29:41;;;;;;;1.75;1.65;;;;;;;3.35;100.00;101933.16;5092445;28;20039;-52
2022/04/27 04:32:07;;;;;;;0.75;0.52;;;;;;;3.37;100.00;101929.50;5102609;28;20023;-50
2022/04/27 04:34:32;;;;;;;1.08;0.88;;;;;;;3.37;100.00;101926.03;5104115;28;20160;-46
2022/04/27 04:36:58;;;;;;;2.15;1.75;;;;;;;3.39;100.00;101929.41;5102527;28;20034;-46
2022/04/27 04:39:23;;;;;;;0.70;0.70;;;;;;;3.41;100.00;101924.88;5093669;28;20062;-50
2022/04/27 04:41:48;;;;;;;0.75;0.20;;;;;;;3.43;100.00;101930.84;5094533;28;20032;-51
2022/04/27 04:44:14;;;;;;;1.70;0.82;;;;;;;3.46;100.00;101933.25;5097332;28;20439;-51
2022/04/27 04:46:39;;;;;;;2.35;0.65;;;;;;;3.48;100.00;101936.59;5107210;28;20027;-49
2022/04/27 04:49:05;;;;;;;2.45;1.20;;;;;;;3.53;100.00;101936.25;5092348;28;20031;-50
2022/04/27 04:51:31;;;;;;;0.98;0.70;;;;;;;3.56;100.00;101942.13;5105878;28;20055;-49
2022/04/27 04:53:56;;;;;;;2.85;0.80;;;;;;;3.58;100.00;101937.59;5097411;28;20034;-49
2022/04/27 04:56:21;;;;;;;4.75;0.70;;;;;;;3.58;100.00;101934.97;5099264;28;20036;-51
2022/04/27 04:58:47;;;;;;;5.45;1.67;;;;;;;3.61;100.00;101937.38;5093027;28;20379;-46
2022/04/27 05:01:12;;;;;;;3.35;1.67;;;;;;;3.66;100.00;101939.69;5098776;28;20233;-52
2022/04/27 05:03:38;;;;;;;1.60;0.88;;;;;;;3.69;100.00;101935.06;5098065;28;20030;-48
2022/04/27 05:06:04;;;;;;;0.55;0.55;;;;;;;3.74;100.00;101936.50;5099600;28;20040;-48
2022/04/27 05:08:29;;;;;;;5.00;0.88;;;;;;;3.78;100.00;101948.47;5091349;28;20389;-49
2022/04/27 05:10:55;;;;;;;3.83;1.73;;;;;;;3.80;100.00;101951.81;5097950;28;20028;-50
2022/04/27 05:13:20;;;;;;;2.08;0.57;;;;;;;3.84;100.00;101948.84;5105777;28;20027;-52
2022/04/27 05:15:45;;;;;;;1.50;0.80;;;;;;;3.89;100.00;101951.97;5115129;27;20027;-53
2022/04/27 05:18:11;;;;;;;2.40;0.88;;;;;;;3.93;100.00;101955.22;5124776;27;20398;-47
2022/04/27 05:20:38;;;;;;;3.22;1.55;;;;;;;3.99;100.00;101956.56;5101545;27;20031;-47
2022/04/27 05:23:04;;;;;;;1.92;0.60;;;;;;;4.03;100.00;101958.88;5108410;28;20110;-46
2022/04/27 05:25:29;;;;;;;0.98;0.98;;;;;;;4.11;100.00;101963.56;5108345;28;20111;-48
2022/04/27 05:27:55;;;;;;;1.95;0.50;;;;;;;4.19;100.00;101963.00;5100953;27;20068;-51
2022/04/27 05:33:04;;;;;;;0.85;0.50;;;;;;;4.29;100.00;101966.59;5105026;28;20051;-47
2022/04/27 05:35:29;;;;;;;0.85;0.63;;;;;;;4.31;100.00;101968.16;5098082;28;20020;-49
2022/04/27 05:37:55;;;;;;;2.05;1.38;;;;;;;4.34;100.00;101967.09;5090485;28;20080;-48
2022/04/27 05:40:20;;;;;;;7.38;0.93;;;;;;;4.40;100.00;101969.25;5103506;27;20158;-48
2022/04/27 05:42:48;;;;;;;3.83;1.23;;;;;;;4.46;100.00;101974.03;5100030;28;20035;-51
2022/04/27 05:45:14;;;;;;;2.53;1.70;;;;;;;4.53;100.00;101969.19;5102201;28;20021;-48
2022/04/27 05:47:39;;;;;;;3.17;1.00;;;;;;;4.56;100.00;101980.28;5099829;28;20027;-47
2022/04/27 05:50:05;;;;;;;7.95;1.05;;;;;;;4.62;100.00;101975.53;5100764;27;20111;-49
2022/04/27 05:52:44;;;;;;;2.92;0.93;;;;;;;4.65;100.00;101976.16;5097502;28;20103;-48
2022/04/27 05:55:09;;;;;;;1.77;0.40;;;;;;;4.71;100.00;101985.34;5097597;28;20133;-47
2022/04/27 05:57:35;;;;;;;1.48;1.15;;;;;;;4.76;100.00;101989.31;5109883;28;20024;-51
2022/04/27 06:00:00;;;;;;;2.33;1.10;;;;;;;4.81;100.00;101986.34;5101955;27;20039;-46
2022/04/27 06:02:25;;;;;;;1.25;1.02;;;;;;;4.88;100.00;101994.56;5104140;28;20080;-46
2022/04/27 06:04:51;;;;;;;1.13;1.00;;;;;;;4.95;100.00;101995.78;5083496;28;20164;-47
2022/04/27 06:07:16;;;;;;;1.35;0.80;;;;;;;5.01;100.00;102003.22;5100727;28;20035;-51
2022/04/27 06:09:41;;;;;;;4.40;1.20;;;;;;;5.05;100.00;101990.66;5101821;27;20043;-51
2022/04/27 06:12:07;;;;;;;2.13;0.60;;;;;;;5.12;100.00;101994.50;5107226;28;20039;-49
2022/04/27 06:14:33;;;;;;;1.75;0.52;;;;;;;5.20;100.00;101992.94;5102336;28;20052;-48
2022/04/27 06:16:58;;;;;;;1.45;0.65;;;;;;;5.28;100.00;101989.72;5090930;28;20034;-53
2022/04/27 06:19:23;;;;;;;1.63;0.65;;;;;;;5.38;100.00;101985.41;5097342;27;20028;-52
2022/04/27 06:21:49;;;;;;;0.98;0.75;;;;;;;5.46;100.00;101997.97;5106951;27;20019;-54
2022/04/27 06:24:14;;;;;;;1.58;0.65;;;;;;;5.49;100.00;101997.72;5099847;28;20066;-51
2022/04/27 06:26:39;;;;;;;1.35;0.60;;;;;;;5.56;100.00;102000.72;5078995;28;20028;-48
2022/04/27 06:29:05;;;;;;;1.88;0.60;;;;;;;5.60;100.00;102003.00;5097646;28;20039;-49
2022/04/27 06:31:31;;;;;;;1.13;1.02;;;;;;;5.65;100.00;102003.47;5092321;28;20046;-49
2022/04/27 06:33:56;;;;;;;0.63;0.63;;;;;;;5.68;100.00;101997.97;5103377;28;20032;-50
2022/04/27 06:36:22;;;;;;;4.25;1.20;;;;;;;5.72;100.00;102011.69;5097537;28;20133;-50
2022/04/27 06:38:47;;;;;;;1.95;0.60;;;;;;;5.77;100.00;102016.59;5103212;28;20153;-51
2022/04/27 06:41:12;;;;;;;3.85;0.55;;;;;;;5.81;100.00;102010.16;5098336;28;20031;-52
2022/04/27 06:43:38;;;;;;;1.52;0.35;;;;;;;5.85;100.00;102022.09;5095448;28;20023;-47
2022/04/27 06:46:03;;;;;;;2.05;0.55;;;;;;;5.85;100.00;102017.66;5095128;28;20384;-51
2022/04/27 06:48:30;;;;;;;4.15;1.10;;;;;;;5.88;100.00;102013.94;5100337;28;20370;-48
2022/04/27 06:50:55;;;;;;;1.02;0.68;;;;;;;5.92;100.00;102019.81;5098537;28;20028;-47
2022/04/27 06:53:20;;;;;;;2.22;1.63;;;;;;;5.96;100.00;102019.44;5100483;28;20036;-54
2022/04/27 06:55:47;;;;;;;1.58;0.80;;;;;;;6.01;100.00;102019.91;5099693;28;20040;-51
2022/04/27 06:58:13;;;;;;;1.75;0.65;;;;;;;6.05;100.00;102025.78;5099680;28;20027;-51
2022/04/27 07:00:38;;;;;;;4.90;1.08;;;;;;;6.08;100.00;102028.16;5101617;28;20034;-50
2022/04/27 07:03:05;;;;;;;2.88;1.92;;;;;;;6.09;100.00;102032.47;5095217;28;20031;-48
2022/04/27 07:05:30;;;;;;;3.03;0.63;;;;;;;6.08;100.00;102022.91;5098483;28;20034;-51
2022/04/27 07:07:56;;;;;;;3.90;0.85;;;;;;;6.09;100.00;102027.19;5102539;28;20439;-49
2022/04/27 07:10:21;;;;;;;2.83;1.80;;;;;;;6.13;100.00;102030.44;5094160;28;20750;-52
2022/04/27 07:12:47;;;;;;;1.60;0.57;;;;;;;6.17;100.00;102035.34;5097721;28;20619;-52
2022/04/27 07:15:12;;;;;;;1.20;0.73;;;;;;;6.25;100.00;102037.34;5098231;28;20435;-49
2022/04/27 07:17:38;;;;;;;1.58;0.85;;;;;;;6.32;100.00;102036.72;5096751;28;20603;-47
2022/04/27 07:20:05;;;;;;;1.02;0.93;;;;;;;6.38;100.00;102032.75;5089477;28;20443;-50
2022/04/27 07:22:31;;;;;;;3.58;1.17;;;;;;;6.47;100.00;102031.97;5093092;28;20024;-52
2022/04/27 07:24:56;;;;;;;2.70;0.88;;;;;;;6.54;100.00;102027.88;5095653;28;20652;-49
2022/04/27 07:27:21;;;;;;;3.92;1.20;;;;;;;6.59;100.00;102035.41;5101816;28;20035;-50
2022/04/27 07:29:47;;;;;;;2.40;0.65;;;;;;;6.60;100.00;102030.97;5088845;28;20036;-54
2022/04/27 07:32:12;;;;;;;3.42;0.80;;;;;;;6.66;100.00;102041.88;5096100;28;20115;-49
2022/04/27 07:34:38;;;;;;;3.17;0.80;;;;;;;6.75;100.00;102033.16;5100111;28;20027;-52
2022/04/27 07:37:05;;;;;;;3.58;0.98;;;;;;;6.88;100.00;102040.06;5094227;28;20042;-52
2022/04/27 07:39:31;;;;;;;3.33;0.90;;;;;;;6.96;100.00;102038.44;5105601;28;20030;-52
2022/04/27 07:41:56;;;;;;;2.75;1.77;;;;;;;7.05;100.00;102036.84;5103572;28;20028;-52
2022/04/27 07:44:21;;;;;;;9.90;1.60;;;;;;;7.15;100.00;102045.66;5103059;28;20070;-50
2022/04/27 07:46:50;;;;;;;2.58;1.15;;;;;;;7.24;100.00;102037.91;5101361;28;20027;-51
2022/04/27 07:49:19;;;;;;;6.65;1.38;;;;;;;7.29;100.00;102036.56;5092475;28;20396;-52
2022/04/27 07:51:49;;;;;;;7.90;0.95;;;;;;;7.40;100.00;102040.91;5096204;28;20085;-50
2022/04/27 07:54:15;;;;;;;3.30;0.80;;;;;;;7.53;100.00;102035.41;5099859;28;20440;-48
2022/04/27 07:56:40;;;;;;;2.72;0.52;;;;;;;7.64;100.00;102043.22;5080426;28;20028;-50
2022/04/27 07:59:06;;;;;;;3.40;1.10;;;;;;;7.72;100.00;102039.91;5092197;28;20024;-52
2022/04/27 08:01:31;;;;;;;1.30;0.45;;;;;;;7.78;100.00;102040.22;5098759;28;20031;-50
2022/04/27 08:03:57;;;;;;;2.22;0.80;;;;;;;7.70;100.00;102037.41;5103321;28;20449;-53
2022/04/27 08:06:22;;;;;;;0.70;0.68;;;;;;;7.85;100.00;102043.16;5108070;28;20065;-53
2022/04/27 08:08:48;;;;;;;5.43;0.63;;;;;;;8.03;100.00;102030.97;5105472;28;20064;-50
2022/04/27 08:11:15;;;;;;;2.05;1.38;;;;;;;8.10;100.00;102025.97;5100352;28;20031;-51
2022/04/27 08:13:44;;;;;;;1.73;0.63;;;;;;;8.24;100.00;102024.75;5095196;28;20059;-49
2022/04/27 08:16:13;;;;;;;11.45;1.13;;;;;;;8.46;100.00;102032.41;5096045;28;20024;-48
2022/04/27 08:18:39;;;;;;;0.30;0.30;;;;;;;8.62;100.00;102033.66;5093758;28;20035;-51
2022/04/27 08:21:14;;;;;;;3.42;1.48;;;;;;;8.72;100.00;102030.06;5094519;28;20472;-48
2022/04/27 08:23:40;;;;;;;8.02;0.60;;;;;;;8.92;100.00;102033.50;5093988;28;20028;-48
2022/04/27 08:26:07;;;;;;;0.32;0.10;;;;;;;9.01;100.00;102029.16;5098539;28;20074;-46
2022/04/27 08:28:33;;;;;;;5.88;0.35;;;;;;;8.89;100.00;102033.78;5108402;28;20116;-48
2022/04/27 08:30:59;;;;;;;3.42;1.15;;;;;;;8.93;100.00;102031.66;5092702;28;20028;-47
2022/04/27 08:33:25;;;;;;;6.30;0.98;;;;;;;9.07;100.00;102035.69;5099167;28;20027;-45
2022/04/27 08:35:50;;;;;;;1.13;0.35;;;;;;;9.17;100.00;102033.88;5089394;28;20024;-49
2022/04/27 08:38:16;;;;;;;2.47;0.52;;;;;;;9.25;100.00;102041.91;5090370;28;20090;-52
2022/04/27 08:40:45;;;;;;;1.17;0.90;;;;;;;9.24;100.00;102042.03;5101053;28;20038;-45
2022/04/27 08:43:11;;;;;;;0.60;0.15;;;;;;;9.23;100.00;102041.22;5082633;28;20449;-50
2022/04/27 08:45:40;;;;;;;0.38;0.38;;;;;;;9.24;100.00;102045.53;5071664;28;20038;-46
2022/04/27 08:48:07;;;;;;;1.45;0.10;;;;;;;9.37;100.00;102048.72;5092723;28;20071;-49
2022/04/27 08:50:32;;;;;;;5.32;0.32;;;;;;;9.41;100.00;102045.75;5098125;28;20024;-47
2022/04/27 08:52:58;;;;;;;4.75;1.00;;;;;;;9.29;100.00;102042.44;5098228;28;20076;-50
2022/04/27 08:55:27;;;;;;;3.67;0.95;;;;;;;9.22;100.00;102046.66;5105679;28;20035;-48
2022/04/27 08:57:54;;;;;;;1.15;0.45;;;;;;;9.16;100.00;102051.56;5103163;28;20054;-48
2022/04/27 09:00:21;;;;;;;0.65;0.10;;;;;;;8.94;100.00;102047.41;5103205;28;20070;-52
2022/04/27 09:02:48;;;;;;;0.47;0.17;;;;;;;8.75;100.00;102052.72;5099614;28;20396;-51
2022/04/27 09:05:20;;;;;;;1.45;0.80;;;;;;;8.65;100.00;102051.91;5074093;28;20175;-50
2022/04/27 09:07:57;;;;;;;1.10;0.22;;;;;;;8.56;100.00;102055.38;5098906;28;20457;-49
2022/04/27 09:10:24;;;;;;;0.88;0.28;;;;;;;8.56;100.00;102056.22;5098798;28;20039;-50
2022/04/27 09:12:57;;;;;;;1.10;0.10;;;;;;;8.61;100.00;102058.44;5099530;28;20107;-52
2022/04/27 09:15:26;;;;;;;3.88;0.20;;;;;;;8.67;100.00;102058.72;5097334;28;20040;-50
2022/04/27 09:20:54;;;;;;;1.30;0.10;;;;;;;8.62;100.00;102062.75;5091790;28;20108;-49
2022/04/27 09:23:24;;;;;;;1.13;0.10;;;;;;;8.64;100.00;102063.44;5101084;28;20028;-50
2022/04/27 09:25:57;;;;;;;1.00;0.10;;;;;;;8.81;100.00;102059.28;5094105;28;20031;-47
2022/04/27 09:28:32;;;;;;;2.30;0.10;;;;;;;8.88;100.00;102055.94;5101678;28;20046;-48
2022/04/27 09:30:59;;;;;;;0.38;0.10;;;;;;;8.84;100.00;102064.28;5093706;28;20143;-47
2022/04/27 09:33:39;;;;;;;0.77;0.20;;;;;;;8.76;100.00;102062.34;5088317;28;20039;-47
2022/04/27 09:36:23;;;;;;;0.88;0.30;;;;;;;8.85;100.00;102064.13;5103057;28;20051;-53
2022/04/27 09:38:49;;;;;;;1.98;0.22;;;;;;;8.99;100.00;102062.03;5097043;28;20435;-48
2022/04/27 09:41:14;;;;;;;1.15;0.10;;;;;;;9.01;100.00;102065.34;5101700;28;20036;-52
2022/04/27 09:43:45;;;;;;;0.43;0.25;;;;;;;9.04;100.00;102065.09;5097681;28;20023;-50
2022/04/27 09:46:20;;;;;;;0.25;0.17;;;;;;;9.17;100.00;102062.97;5096230;28;20028;-50
2022/04/27 09:48:46;;;;;;;0.80;0.20;;;;;;;9.31;100.00;102059.03;5095101;28;20103;-48
2022/04/27 09:51:13;;;;;;;0.43;0.10;;;;;;;9.34;100.00;102067.50;5093512;28;20023;-50
2022/04/27 09:53:42;;;;;;;1.60;0.30;;;;;;;9.16;100.00;102064.78;5097759;28;20496;-47
2022/04/27 09:56:12;;;;;;;0.10;0.10;;;;;;;9.19;100.00;102071.63;5098127;28;20059;-49
2022/04/27 09:58:44;;;;;;;1.45;0.00;;;;;;;9.24;100.00;102061.44;5101964;28;20404;-46
2022/04/27 10:01:16;;;;;;;7.97;0.20;;;;;;;9.32;100.00;102061.53;5104089;28;20022;-47
2022/04/27 10:03:44;;;;;;;;;;;;;;;9.37;100.00;102061.09;5102618;28;20042;-45
2022/04/27 10:06:10;;;;;;;1.45;0.10;;;;;;;9.36;100.00;102057.59;5100957;28;19916;-48
2022/04/27 10:08:39;;;;;;;0.82;0.65;;;;;;;9.54;100.00;102062.16;5106140;28;20404;-44
2022/04/27 10:11:06;;;;;;;1.02;0.10;;;;;;;9.62;100.00;102056.94;5103181;28;20037;-47
2022/04/27 10:13:32;;;;;;;0.98;0.10;;;;;;;9.48;100.00;102066.22;5100425;28;20023;-50
2022/04/27 10:15:58;;;;;;;3.05;0.50;;;;;;;9.50;100.00;102060.75;5102986;28;20034;-46
2022/04/27 10:18:23;;;;;;;0.43;0.08;;;;;;;9.24;100.00;102053.50;5097248;28;20046;-48
2022/04/27 10:20:51;;;;;;;1.00;0.28;;;;;;;9.07;100.00;102055.06;5103708;28;20038;-51
2022/04/27 10:23:24;;;;;;;0.63;0.25;;;;;;;9.15;100.00;102059.63;5105152;28;20089;-46
2022/04/27 10:26:12;;;;;;;4.78;1.13;;;;;;;9.17;100.00;102050.56;5103951;28;20055;-50
2022/04/27 10:28:53;;;;;;;1.90;0.52;;;;;;;9.14;100.00;102045.56;5107726;28;20525;-49
2022/04/27 10:31:41;;;;;;;1.98;0.10;;;;;;;9.26;100.00;102054.16;5097884;28;20047;-50
2022/04/27 10:34:21;;;;;;;0.22;0.00;;;;;;;9.23;100.00;102053.63;5097499;28;20031;-48
2022/04/27 10:36:51;;;;;;;0.75;0.20;;;;;;;9.33;100.00;102049.13;5094433;28;20035;-51
2022/04/27 10:39:19;;;;;;;3.30;1.02;;;;;;;9.26;100.00;102048.88;5095242;28;20028;-49
2022/04/27 10:42:03;;;;;;;5.15;0.20;;;;;;;9.11;100.00;102045.00;5103115;28;20114;-47
2022/04/27 10:44:50;;;;;;;3.75;0.50;;;;;;;9.07;100.00;102038.34;5096496;28;20039;-46
2022/04/27 10:47:18;;;;;;;1.05;0.30;;;;;;;9.03;100.00;102048.34;5091123;28;20035;-51
2022/04/27 10:49:44;;;;;;;1.45;0.75;;;;;;;9.02;100.00;102044.06;5093859;28;20097;-48
2022/04/27 10:52:10;;;;;;;4.40;0.70;;;;;;;9.05;100.00;102056.16;5097469;28;20031;-53
2022/04/27 10:54:38;;;;;;;1.55;0.35;;;;;;;9.13;100.00;102053.63;5099348;28;20374;-47
2022/04/27 10:57:29;;;;;;;3.58;0.35;;;;;;;9.14;100.00;102057.97;5105732;28;20043;-50
2022/04/27 10:59:59;;;;;;;2.40;0.50;;;;;;;9.16;100.00;102059.50;5058378;28;20051;-47
2022/04/27 11:02:37;;;;;;;2.40;0.28;;;;;;;9.15;100.00;102051.69;5098551;28;20107;-48
2022/04/27 11:05:23;;;;;;;3.35;0.47;;;;;;;9.35;100.00;102053.31;5096328;28;20032;-48
2022/04/27 11:07:56;;;;;;;0.65;0.43;;;;;;;9.52;100.00;102053.50;5094347;28;20032;-47
2022/04/27 11:10:24;;;;;;;1.35;0.73;;;;;;;9.59;100.00;102050.13;5073815;28;20450;-51
2022/04/27 11:12:51;;;;;;;2.65;0.47;;;;;;;9.58;100.00;102050.31;5108652;28;20028;-46
2022/04/27 11:15:25;;;;;;;2.35;0.25;;;;;;;9.44;100.00;102050.75;5098282;28;20466;-49
2022/04/27 11:18:01;;;;;;;1.27;0.10;;;;;;;9.27;100.00;102044.44;5091477;28;20241;-49
2022/04/27 11:20:38;;;;;;;1.00;0.47;;;;;;;9.17;100.00;102053.22;5086441;28;20499;-48
2022/04/27 11:23:08;;;;;;;1.42;0.50;;;;;;;9.08;100.00;102047.94;5097431;28;20024;-49
2022/04/27 11:25:36;;;;;;;1.98;0.13;;;;;;;9.05;100.00;102053.53;5098565;28;20472;-48
2022/04/27 11:28:03;;;;;;;0.93;0.22;;;;;;;9.01;100.00;102049.47;5099159;28;20023;-52
2022/04/27 11:30:31;;;;;;;3.47;1.17;;;;;;;8.98;100.00;102057.72;5098677;28;20040;-47
2022/04/27 11:32:57;;;;;;;2.60;0.28;;;;;;;9.12;100.00;102047.50;5093418;28;20024;-49
2022/04/27 11:35:25;;;;;;;3.25;0.15;;;;;;;9.26;100.00;102059.44;5108356;28;20042;-49
2022/04/27 11:37:54;;;;;;;3.10;0.52;;;;;;;9.41;100.00;102051.88;5095574;28;20103;-47